CheckWX is a tool to help pilots better visualize weather data.  It is not intended as a substitute for an official pre-flight weather briefing.

18:02:51 UTC

VTBD METAR
Don Mueang International Airport
Bangkok, Thailand
Current

1 hour ago

VTBD 121700Z 11007KT 9999 FEW040 28/22 Q1012 NOSIG
Observed
Nov-12 @ 17:00 UTC
Wind
  • 110° at 7 KTS
Visibility
10,000+ meters
Flight Rules
VFR
Cloud Levels
  • Few at 4,000' AGL
Temperature
28°C / 82°F
Dewpoint
22°C / 72°F
Heat Index
30°C / 86°F
Humidity
70%
Altimeter
29.88" Hg
Pressure
1011.92 hPa
Previous

2 hours ago

VTBD 121630Z 11008KT 9999 FEW040 28/22 Q1012 NOSIG
Observed
Nov-12 @ 16:30 UTC
Wind
  • 110° at 8 KTS
Visibility
10,000+ meters
Flight Rules
VFR
Cloud Levels
  • Few at 4,000' AGL
Temperature
28°C / 82°F
Dewpoint
22°C / 72°F
Heat Index
30°C / 86°F
Humidity
70%
Altimeter
29.88" Hg
Pressure
1011.92 hPa
Previous

2 hours ago

VTBD 121600Z 11008KT 9999 FEW040 29/22 Q1012 NOSIG
Observed
Nov-12 @ 16:00 UTC
Wind
  • 110° at 8 KTS
Visibility
10,000+ meters
Flight Rules
VFR
Cloud Levels
  • Few at 4,000' AGL
Temperature
29°C / 84°F
Dewpoint
22°C / 72°F
Heat Index
32°C / 89°F
Humidity
66%
Altimeter
29.88" Hg
Pressure
1011.92 hPa